Aviation Digital Data Service (ADDS)

Output produced by METARs form (0628 UTC 19 February 2019)
found at http://www.aviationweather.gov/metar/data/
 
Forecast for: ETNH (HOHN (GER-AFB) , DE)
Text: TAF ETNH 182300Z 1900/1912 21007KT 9999 NSW BKN030
Forecast period: 0000 to 1200 UTC 19 February 2019
Forecast type: FROM: standard forecast or significant change
Winds: from the SSW (210 degrees) at 8 MPH (7 knots; 3.6 m/s)
Visibility: 6 or more miles 10+ km)
Ceiling: 3000 feet AGL
Clouds: broken clouds at 3000 feet AGL
Weather: NSW  (no significant weather)
Text: TEMPO 1900/1908 20008KT 4000 -RADZ BKN010 BY ETGL
Forecast period: 0000 to 0800 UTC 19 February 2019
Forecast type: TEMPORARY: The following changes expected for less than half the time period
Winds: from the SSW (200 degrees) at 9 MPH (8 knots; 4.1 m/s)
Visibility: 2.49 miles (4.01 km)
Ceiling: 1000 feet AGL
Clouds: broken clouds at 1000 feet AGL
Weather: -RA -DZ  (light rain, light drizzle)